createdAt,value
2023-01-30T00:01:20.253Z,-1.01
2023-01-30T00:03:48.194Z,-1.04
2023-01-30T00:06:16.223Z,-1.04
2023-01-30T00:08:44.099Z,-1.00
2023-01-30T00:11:12.983Z,-1.02
2023-01-30T00:13:40.949Z,-1.01
2023-01-30T00:16:10.776Z,-0.99
2023-01-30T00:18:39.766Z,-0.91
2023-01-30T00:21:09.160Z,-0.93
2023-01-30T00:23:37.744Z,-0.93
2023-01-30T00:26:06.274Z,-0.94
2023-01-30T00:28:34.528Z,-0.95
2023-01-30T00:31:02.449Z,-0.96
2023-01-30T00:33:30.412Z,-0.97
2023-01-30T00:35:58.424Z,-1.00
2023-01-30T00:38:26.339Z,-1.01
2023-01-30T00:40:54.234Z,-1.05
2023-01-30T00:43:40.553Z,-1.08
2023-01-30T00:46:32.995Z,-1.08
2023-01-30T00:49:00.818Z,-1.09
2023-01-30T00:51:28.736Z,-1.13
2023-01-30T00:53:56.566Z,-1.10
2023-01-30T00:56:24.379Z,-1.11
2023-01-30T00:58:52.241Z,-1.09
2023-01-30T01:01:20.127Z,-1.11
2023-01-30T01:03:48.105Z,-1.09
2023-01-30T01:06:15.946Z,-1.12
2023-01-30T01:08:43.804Z,-1.16
2023-01-30T01:11:11.666Z,-1.20
2023-01-30T01:13:39.507Z,-1.22
2023-01-30T01:16:07.532Z,-1.25
2023-01-30T01:18:35.410Z,-1.24
2023-01-30T01:21:03.172Z,-1.24
2023-01-30T01:23:30.959Z,-1.27
2023-01-30T01:26:03.093Z,-1.29
2023-01-30T01:28:31.372Z,-1.26
2023-01-30T01:30:59.192Z,-1.30
2023-01-30T01:33:30.233Z,-1.30
2023-01-30T01:35:58.307Z,-1.32
2023-01-30T01:38:26.182Z,-1.31
2023-01-30T01:41:11.187Z,-1.29
2023-01-30T01:44:13.759Z,-1.29
2023-01-30T01:46:48.959Z,-1.25
2023-01-30T01:49:36.383Z,-1.19
2023-01-30T01:52:14.853Z,-1.13
2023-01-30T01:54:51.679Z,-1.15
2023-01-30T01:57:27.662Z,-1.22
2023-01-30T02:00:03.625Z,-1.22
2023-01-30T02:02:31.428Z,-1.23
2023-01-30T02:05:07.547Z,-1.17
2023-01-30T02:07:41.073Z,-1.16
2023-01-30T02:10:09.946Z,-1.16
2023-01-30T02:12:38.301Z,-1.15
2023-01-30T02:15:06.714Z,-1.14
2023-01-30T02:17:34.501Z,-1.11
2023-01-30T02:20:04.941Z,-1.09
2023-01-30T02:22:56.564Z,-1.10
2023-01-30T02:25:42.604Z,-1.10
2023-01-30T02:28:22.356Z,-1.05
2023-01-30T02:31:27.787Z,-1.07
2023-01-30T02:34:10.690Z,-1.07
2023-01-30T02:37:02.608Z,-1.06
2023-01-30T02:39:43.354Z,-1.12
2023-01-30T02:42:39.069Z,-1.15
2023-01-30T02:45:49.193Z,-1.14
2023-01-30T02:48:39.841Z,-1.15
2023-01-30T02:51:11.070Z,-1.16
2023-01-30T02:53:39.068Z,-1.16
2023-01-30T02:56:07.829Z,-1.11
2023-01-30T02:58:47.740Z,-1.08
2023-01-30T03:01:21.255Z,-1.04
2023-01-30T03:04:07.269Z,-1.04
2023-01-30T03:06:38.355Z,-1.05
2023-01-30T03:09:08.662Z,-1.10
2023-01-30T03:12:07.353Z,-1.12
2023-01-30T03:14:47.392Z,-1.16
2023-01-30T03:17:15.142Z,-1.17
2023-01-30T03:19:43.464Z,-1.16
2023-01-30T03:22:11.207Z,-1.12
2023-01-30T03:24:39.040Z,-1.09
2023-01-30T03:27:12.255Z,-1.02
2023-01-30T03:29:40.481Z,-1.03
2023-01-30T03:32:08.583Z,-1.01
2023-01-30T03:34:36.387Z,-0.96
2023-01-30T03:37:05.075Z,-0.91
2023-01-30T03:39:32.901Z,-0.85
2023-01-30T03:42:00.746Z,-0.85
2023-01-30T03:44:28.531Z,-0.81
2023-01-30T03:46:56.416Z,-0.79
2023-01-30T03:49:24.409Z,-0.76
2023-01-30T03:51:52.134Z,-0.76
2023-01-30T03:54:19.945Z,-0.75
2023-01-30T03:56:47.851Z,-0.74
2023-01-30T03:59:15.575Z,-0.72
2023-01-30T04:01:43.364Z,-0.71
2023-01-30T04:04:11.366Z,-0.66
2023-01-30T04:06:39.110Z,-0.66
2023-01-30T04:09:06.987Z,-0.65
2023-01-30T04:11:34.753Z,-0.66
2023-01-30T04:14:02.527Z,-0.71
2023-01-30T04:16:30.417Z,-0.71
2023-01-30T04:18:58.176Z,-0.68
2023-01-30T04:21:25.982Z,-0.64
2023-01-30T04:23:53.785Z,-0.63
2023-01-30T04:26:21.750Z,-0.62
2023-01-30T04:28:49.486Z,-0.63
2023-01-30T04:31:17.395Z,-0.62
2023-01-30T04:33:45.133Z,-0.60
2023-01-30T04:36:13.886Z,-0.58
2023-01-30T04:38:41.740Z,-0.61
2023-01-30T04:41:09.726Z,-0.64
2023-01-30T04:43:37.522Z,-0.65
2023-01-30T04:46:05.429Z,-0.67
2023-01-30T04:48:33.380Z,-0.74
2023-01-30T04:51:01.305Z,-0.76
2023-01-30T04:53:29.359Z,-0.79
2023-01-30T04:55:57.212Z,-0.77
2023-01-30T04:58:25.123Z,-0.84
2023-01-30T05:00:52.847Z,-0.81
2023-01-30T05:03:20.715Z,-0.78
2023-01-30T05:05:48.574Z,-0.77
2023-01-30T05:08:16.944Z,-0.78
2023-01-30T05:10:44.758Z,-0.75
2023-01-30T05:13:12.535Z,-0.72
2023-01-30T05:15:40.379Z,-0.77
2023-01-30T05:18:08.174Z,-0.80
2023-01-30T05:20:35.893Z,-0.81
2023-01-30T05:23:03.692Z,-0.82
2023-01-30T05:25:31.482Z,-0.80
2023-01-30T05:27:59.345Z,-0.78
2023-01-30T05:30:27.231Z,-0.76
2023-01-30T05:32:55.137Z,-0.77
2023-01-30T05:35:22.955Z,-0.77
2023-01-30T05:37:53.906Z,-0.78
2023-01-30T05:40:21.764Z,-0.79
2023-01-30T05:42:49.654Z,-0.84
2023-01-30T05:45:17.725Z,-0.84
2023-01-30T05:47:45.671Z,-0.82
2023-01-30T05:50:13.561Z,-0.82
2023-01-30T05:52:41.351Z,-0.81
2023-01-30T05:55:09.612Z,-0.79
2023-01-30T05:57:37.394Z,-0.80
2023-01-30T06:00:06.600Z,-0.84
2023-01-30T06:02:34.667Z,-0.84
2023-01-30T06:05:02.494Z,-0.86
2023-01-30T06:07:30.458Z,-0.85
2023-01-30T06:09:58.322Z,-0.82
2023-01-30T06:12:26.202Z,-0.80
2023-01-30T06:14:54.055Z,-0.77
2023-01-30T06:17:21.924Z,-0.75
2023-01-30T06:19:49.688Z,-0.83
2023-01-30T06:22:17.462Z,-0.81
2023-01-30T06:24:45.345Z,-0.79
2023-01-30T06:27:13.096Z,-0.80
2023-01-30T06:29:40.887Z,-0.76
2023-01-30T06:32:10.603Z,-0.76
2023-01-30T06:34:38.504Z,-0.77
2023-01-30T06:37:06.364Z,-0.78
2023-01-30T06:39:34.246Z,-0.75
2023-01-30T06:42:02.013Z,-0.78
2023-01-30T06:44:29.814Z,-0.77
2023-01-30T06:46:57.574Z,-0.75
2023-01-30T06:49:25.350Z,-0.74
2023-01-30T06:51:53.126Z,-0.72
2023-01-30T06:54:20.875Z,-0.70
2023-01-30T06:56:48.747Z,-0.66
2023-01-30T06:59:16.600Z,-0.37
2023-01-30T07:01:44.427Z,0.24
2023-01-30T07:04:17.009Z,0.65
2023-01-30T07:06:44.821Z,0.90
2023-01-30T07:09:13.074Z,0.83
2023-01-30T07:11:40.881Z,0.59
2023-01-30T07:14:08.749Z,0.38
2023-01-30T07:16:36.614Z,0.26
2023-01-30T07:19:04.492Z,0.11
2023-01-30T07:21:32.254Z,0.03
2023-01-30T07:24:00.634Z,-0.11
2023-01-30T07:26:30.865Z,-0.17
2023-01-30T07:28:58.793Z,-0.19
2023-01-30T07:31:26.757Z,-0.28
2023-01-30T07:33:54.552Z,-0.34
2023-01-30T07:36:22.396Z,-0.33
2023-01-30T07:38:50.874Z,-0.33
2023-01-30T07:41:18.750Z,-0.38
2023-01-30T07:43:46.557Z,-0.44
2023-01-30T07:46:14.276Z,-0.46
2023-01-30T07:48:42.091Z,-0.52
2023-01-30T07:51:09.932Z,-0.62
2023-01-30T07:53:37.810Z,-0.58
2023-01-30T07:56:11.888Z,-0.55
2023-01-30T07:58:39.763Z,-0.56
2023-01-30T08:01:07.743Z,-0.47
2023-01-30T08:03:35.551Z,-0.27
2023-01-30T08:06:03.421Z,0.30
2023-01-30T08:08:31.328Z,0.90
2023-01-30T08:10:59.051Z,1.45
2023-01-30T08:13:26.833Z,1.99
2023-01-30T08:15:54.715Z,2.35
2023-01-30T08:18:22.501Z,2.54
2023-01-30T08:20:50.370Z,2.48
2023-01-30T08:23:18.067Z,2.50
2023-01-30T08:25:45.871Z,2.30
2023-01-30T08:28:13.691Z,2.13
2023-01-30T08:30:42.891Z,2.15
2023-01-30T08:33:10.710Z,2.06
2023-01-30T08:35:38.578Z,2.24
2023-01-30T08:38:12.386Z,2.07
2023-01-30T08:40:40.201Z,1.81
2023-01-30T08:43:08.192Z,1.36
2023-01-30T08:45:36.114Z,1.24
2023-01-30T08:48:05.665Z,1.11
2023-01-30T08:50:34.029Z,1.05
2023-01-30T08:53:06.825Z,0.95
2023-01-30T08:55:34.695Z,0.70
2023-01-30T08:58:02.586Z,0.73
2023-01-30T09:00:30.525Z,0.91
2023-01-30T09:02:58.642Z,0.79
2023-01-30T09:05:26.586Z,0.64
2023-01-30T09:07:54.479Z,0.65
2023-01-30T09:10:23.446Z,0.80
2023-01-30T09:12:51.433Z,0.88
2023-01-30T09:15:19.438Z,0.87
2023-01-30T09:17:47.340Z,0.94
2023-01-30T09:20:15.262Z,0.95
2023-01-30T09:22:43.152Z,0.99
2023-01-30T09:25:11.259Z,1.23
2023-01-30T09:27:39.148Z,1.40
2023-01-30T09:30:07.657Z,1.67
2023-01-30T09:32:38.654Z,1.82
2023-01-30T09:35:06.648Z,2.14
2023-01-30T09:37:34.518Z,2.32
2023-01-30T09:40:02.354Z,2.46
2023-01-30T09:42:39.087Z,2.29
2023-01-30T09:45:40.142Z,2.47
2023-01-30T09:48:13.857Z,2.63
2023-01-30T09:50:56.958Z,2.98
2023-01-30T09:53:55.159Z,3.01
2023-01-30T09:56:22.948Z,2.94
2023-01-30T09:58:56.216Z,2.84
2023-01-30T10:01:47.005Z,2.63
2023-01-30T10:04:24.410Z,2.70
2023-01-30T10:07:13.259Z,2.78
2023-01-30T10:09:55.345Z,2.91
2023-01-30T10:12:38.359Z,2.90
2023-01-30T10:15:23.682Z,3.12
2023-01-30T10:18:11.905Z,2.89
2023-01-30T10:21:17.258Z,3.07
2023-01-30T10:23:57.089Z,3.20
2023-01-30T10:26:26.939Z,3.15
2023-01-30T10:29:09.773Z,3.36
2023-01-30T10:31:48.193Z,3.29
2023-01-30T10:34:25.443Z,3.07
2023-01-30T10:37:01.636Z,3.27
2023-01-30T10:39:40.848Z,3.48
2023-01-30T10:42:16.018Z,3.64
2023-01-30T10:44:44.095Z,3.75
2023-01-30T10:47:34.783Z,3.57
2023-01-30T10:50:19.351Z,3.38
2023-01-30T10:53:22.017Z,3.55
2023-01-30T10:55:52.441Z,3.47
2023-01-30T10:58:56.248Z,3.59
2023-01-30T11:01:45.508Z,3.59
2023-01-30T11:04:22.203Z,3.65
2023-01-30T11:06:50.077Z,4.12
2023-01-30T11:09:18.081Z,4.46
2023-01-30T11:11:51.119Z,4.81
2023-01-30T11:14:19.107Z,5.16
2023-01-30T11:16:54.758Z,5.50
2023-01-30T11:19:42.217Z,5.76
2023-01-30T11:22:14.446Z,5.97
2023-01-30T11:24:43.846Z,6.29
2023-01-30T11:27:21.238Z,6.53
2023-01-30T11:29:51.532Z,6.83
2023-01-30T11:32:38.433Z,7.08
2023-01-30T11:35:09.426Z,7.28
2023-01-30T11:37:38.722Z,7.14
2023-01-30T11:40:18.884Z,7.02
2023-01-30T11:43:01.298Z,7.03
2023-01-30T11:45:31.610Z,7.48
2023-01-30T11:48:04.582Z,7.75
2023-01-30T11:50:49.688Z,7.94
2023-01-30T11:53:31.325Z,8.05
2023-01-30T11:56:05.689Z,8.16
2023-01-30T11:58:36.286Z,8.33
2023-01-30T12:01:04.366Z,8.39
2023-01-30T12:03:32.532Z,8.25
2023-01-30T12:06:00.555Z,8.19
2023-01-30T12:08:42.233Z,8.41
2023-01-30T12:11:27.629Z,8.46
2023-01-30T12:13:58.965Z,8.37
2023-01-30T12:16:33.225Z,8.00
2023-01-30T12:19:06.401Z,7.82
2023-01-30T12:22:11.121Z,7.57
2023-01-30T12:25:04.138Z,7.33
2023-01-30T12:27:49.688Z,7.22
2023-01-30T12:33:07.544Z,6.73
2023-01-30T12:35:54.496Z,6.59
2023-01-30T12:38:25.302Z,6.37
2023-01-30T12:40:55.821Z,6.19
2023-01-30T12:43:55.869Z,5.99
2023-01-30T12:46:39.779Z,5.89
2023-01-30T12:49:31.952Z,5.80
2023-01-30T12:52:18.479Z,5.67
2023-01-30T12:54:49.570Z,5.63
2023-01-30T12:57:23.441Z,5.57
2023-01-30T13:00:05.007Z,5.40
2023-01-30T13:03:04.038Z,5.35
2023-01-30T13:05:34.677Z,5.15
2023-01-30T13:08:11.262Z,5.07
2023-01-30T13:10:58.125Z,4.94
2023-01-30T13:13:50.150Z,4.83
2023-01-30T13:16:32.357Z,4.81
2023-01-30T13:19:09.129Z,4.74
2023-01-30T13:21:48.007Z,4.72
2023-01-30T13:24:19.885Z,4.63
2023-01-30T13:26:47.749Z,4.56
2023-01-30T13:29:37.279Z,4.60
2023-01-30T13:32:07.235Z,4.58
2023-01-30T13:34:39.759Z,4.53
2023-01-30T13:37:13.634Z,4.56
2023-01-30T13:40:00.879Z,4.56
2023-01-30T13:42:48.588Z,4.51
2023-01-30T13:45:24.137Z,4.49
2023-01-30T13:48:30.464Z,4.52
2023-01-30T13:50:58.092Z,4.59
2023-01-30T13:53:43.588Z,4.59
2023-01-30T13:56:40.311Z,4.61
2023-01-30T13:59:37.325Z,4.55
2023-01-30T14:02:05.098Z,4.55
2023-01-30T14:04:41.959Z,4.55
2023-01-30T14:07:16.791Z,4.52
2023-01-30T14:09:47.817Z,4.55
2023-01-30T14:12:25.788Z,4.53
2023-01-30T14:15:12.550Z,4.52
2023-01-30T14:17:40.911Z,4.47
2023-01-30T14:20:16.626Z,4.43
2023-01-30T14:22:54.034Z,4.41
2023-01-30T14:25:34.340Z,4.45
2023-01-30T14:28:02.811Z,4.48
2023-01-30T14:31:00.798Z,4.51
2023-01-30T14:33:28.506Z,4.44
2023-01-30T14:36:02.467Z,4.43
2023-01-30T14:38:40.057Z,4.47
2023-01-30T14:41:10.616Z,4.46
2023-01-30T14:43:38.356Z,4.46
2023-01-30T14:46:21.351Z,4.40
2023-01-30T14:48:51.752Z,4.42
2023-01-30T14:51:46.467Z,4.41
2023-01-30T14:54:14.339Z,4.41
2023-01-30T14:57:00.294Z,4.41
2023-01-30T14:59:33.736Z,4.41
2023-01-30T15:02:14.856Z,4.38
2023-01-30T15:04:44.528Z,4.31
2023-01-30T15:07:18.731Z,4.29
2023-01-30T15:10:31.861Z,4.27
2023-01-30T15:13:08.500Z,4.28
2023-01-30T15:15:59.753Z,4.31
2023-01-30T15:18:42.787Z,4.32
2023-01-30T15:21:41.751Z,4.30
2023-01-30T15:24:34.336Z,4.34
2023-01-30T15:27:14.432Z,4.33
2023-01-30T15:30:23.499Z,4.30
2023-01-30T15:32:51.483Z,4.26
2023-01-30T15:35:19.977Z,4.23
2023-01-30T15:37:47.773Z,4.18
2023-01-30T15:40:21.864Z,4.17
2023-01-30T15:43:02.126Z,4.18
2023-01-30T15:45:52.789Z,4.21
2023-01-30T15:48:49.101Z,4.19
2023-01-30T15:51:17.529Z,4.18
2023-01-30T15:53:46.441Z,4.17
2023-01-30T15:56:20.298Z,4.13
2023-01-30T15:58:48.252Z,4.08
2023-01-30T16:01:25.514Z,4.06
2023-01-30T16:03:54.536Z,4.07
2023-01-30T16:06:25.841Z,4.02
2023-01-30T16:09:04.959Z,3.99
2023-01-30T16:11:39.960Z,3.99
2023-01-30T16:14:12.270Z,3.97
2023-01-30T16:16:40.102Z,3.96
2023-01-30T16:19:09.011Z,3.93
2023-01-30T16:21:38.225Z,3.89
2023-01-30T16:24:21.663Z,3.87
2023-01-30T16:26:50.635Z,3.88
2023-01-30T16:29:20.537Z,3.88
2023-01-30T16:31:49.179Z,3.84
2023-01-30T16:34:36.100Z,3.80
2023-01-30T16:37:08.862Z,3.73
2023-01-30T16:39:37.890Z,3.69
2023-01-30T16:42:22.337Z,3.68
2023-01-30T16:44:50.199Z,3.62
2023-01-30T16:47:28.221Z,3.58
2023-01-30T16:49:56.511Z,3.53
2023-01-30T16:52:37.985Z,3.50
2023-01-30T16:55:07.913Z,3.49
2023-01-30T16:57:39.797Z,3.50
2023-01-30T17:00:11.055Z,3.51
2023-01-30T17:02:40.913Z,3.51
2023-01-30T17:05:32.641Z,3.52
2023-01-30T17:08:01.607Z,3.53
2023-01-30T17:10:29.471Z,3.51
2023-01-30T17:12:57.446Z,3.53
2023-01-30T17:15:33.339Z,3.47
2023-01-30T17:18:01.238Z,3.45
2023-01-30T17:20:36.700Z,3.50
2023-01-30T17:23:06.831Z,3.48
2023-01-30T17:25:39.356Z,3.51
2023-01-30T17:28:08.205Z,3.52
2023-01-30T17:30:36.341Z,3.50
2023-01-30T17:33:04.153Z,3.49
2023-01-30T17:35:31.971Z,3.43
2023-01-30T17:38:05.415Z,3.42
2023-01-30T17:40:37.317Z,3.43
2023-01-30T17:43:05.741Z,3.40
2023-01-30T17:45:33.612Z,3.40
2023-01-30T17:48:01.587Z,3.41
2023-01-30T17:50:29.757Z,3.40
2023-01-30T17:52:57.650Z,3.35
2023-01-30T17:55:25.470Z,3.32
2023-01-30T17:57:54.281Z,3.32
2023-01-30T18:00:22.951Z,3.31
2023-01-30T18:02:50.981Z,3.29
2023-01-30T18:05:18.822Z,3.22
2023-01-30T18:07:46.676Z,3.22
2023-01-30T18:10:19.879Z,3.26
2023-01-30T18:12:48.135Z,3.29
2023-01-30T18:15:17.076Z,3.32
2023-01-30T18:17:49.087Z,3.25
2023-01-30T18:20:19.422Z,3.18
2023-01-30T18:22:47.602Z,3.17
2023-01-30T18:25:15.734Z,3.18
2023-01-30T18:27:45.244Z,3.19
2023-01-30T18:30:17.031Z,3.17
2023-01-30T18:32:52.424Z,3.17
2023-01-30T18:35:21.163Z,3.17
2023-01-30T18:37:49.049Z,3.13
2023-01-30T18:40:17.039Z,3.14
2023-01-30T18:42:44.960Z,3.12
2023-01-30T18:45:12.844Z,3.10
2023-01-30T18:47:40.656Z,3.12
2023-01-30T18:50:08.721Z,3.14
2023-01-30T18:52:36.679Z,3.13
2023-01-30T18:55:04.611Z,3.09
2023-01-30T18:57:32.595Z,2.97
2023-01-30T19:00:00.467Z,2.97
2023-01-30T19:02:28.295Z,2.97
2023-01-30T19:04:56.108Z,2.95
2023-01-30T19:07:24.133Z,2.95
2023-01-30T19:09:51.930Z,2.96
2023-01-30T19:12:38.369Z,2.93
2023-01-30T19:15:07.202Z,2.95
2023-01-30T19:17:35.074Z,2.94
2023-01-30T19:20:03.766Z,2.95
2023-01-30T19:22:31.613Z,2.90
2023-01-30T19:24:59.566Z,2.91
2023-01-30T19:27:27.562Z,2.92
2023-01-30T19:29:55.419Z,2.91
2023-01-30T19:32:23.311Z,2.94
2023-01-30T19:34:51.162Z,2.91
2023-01-30T19:37:19.144Z,2.91
2023-01-30T19:39:47.058Z,2.91
2023-01-30T19:42:17.204Z,2.89
2023-01-30T19:44:45.180Z,2.88
2023-01-30T19:47:13.037Z,2.89
2023-01-30T19:49:41.026Z,2.89
2023-01-30T19:52:08.942Z,2.87
2023-01-30T19:54:36.713Z,2.85
2023-01-30T19:57:04.601Z,2.87
2023-01-30T19:59:32.479Z,2.88
2023-01-30T20:02:00.483Z,2.86
2023-01-30T20:04:28.401Z,2.86
2023-01-30T20:06:56.321Z,2.84
2023-01-30T20:09:24.210Z,2.87
2023-01-30T20:11:52.072Z,2.87
2023-01-30T20:14:20.017Z,2.87
2023-01-30T20:16:47.867Z,2.88
2023-01-30T20:19:17.250Z,2.88
2023-01-30T20:21:45.511Z,2.91
2023-01-30T20:24:14.541Z,2.94
2023-01-30T20:26:42.778Z,2.95
2023-01-30T20:29:10.822Z,2.97
2023-01-30T20:31:41.818Z,3.01
2023-01-30T20:34:12.352Z,3.01
2023-01-30T20:36:40.328Z,3.01
2023-01-30T20:39:09.521Z,3.03
2023-01-30T20:41:38.839Z,3.05
2023-01-30T20:44:08.328Z,3.04
2023-01-30T20:46:42.050Z,3.06
2023-01-30T20:49:22.355Z,3.05
2023-01-30T20:51:51.915Z,3.07
2023-01-30T20:54:21.060Z,3.06
2023-01-30T20:56:50.663Z,3.05
2023-01-30T20:59:20.284Z,3.02
2023-01-30T21:01:48.233Z,3.03
2023-01-30T21:04:16.826Z,2.98
2023-01-30T21:06:45.941Z,2.95
2023-01-30T21:09:19.212Z,2.92
2023-01-30T21:11:47.236Z,2.91
2023-01-30T21:14:15.247Z,2.86
2023-01-30T21:16:43.420Z,2.77
2023-01-30T21:19:13.857Z,2.73
2023-01-30T21:21:46.953Z,2.70
2023-01-30T21:24:15.610Z,2.70
2023-01-30T21:26:47.079Z,2.75
2023-01-30T21:29:16.303Z,2.75
2023-01-30T21:31:45.405Z,2.81
2023-01-30T21:34:13.466Z,2.84
2023-01-30T21:36:41.432Z,2.85
2023-01-30T21:39:30.775Z,2.88
2023-01-30T21:42:17.575Z,2.85
2023-01-30T21:44:45.929Z,2.89
2023-01-30T21:47:14.083Z,2.92
2023-01-30T21:49:42.927Z,2.94
2023-01-30T21:52:10.751Z,2.91
2023-01-30T21:54:39.099Z,2.95
2023-01-30T21:57:07.007Z,2.96
2023-01-30T21:59:34.794Z,2.96
2023-01-30T22:02:02.641Z,2.95
2023-01-30T22:04:30.415Z,2.94
2023-01-30T22:06:58.136Z,2.94
2023-01-30T22:09:26.016Z,2.94
2023-01-30T22:11:55.466Z,2.94
2023-01-30T22:14:23.417Z,2.92
2023-01-30T22:16:51.369Z,2.92
2023-01-30T22:19:19.237Z,2.79
2023-01-30T22:21:47.119Z,2.76
2023-01-30T22:24:14.911Z,2.71
2023-01-30T22:26:42.865Z,2.56
2023-01-30T22:29:10.726Z,2.59
2023-01-30T22:31:39.750Z,2.60
2023-01-30T22:34:07.671Z,2.60
2023-01-30T22:36:36.170Z,2.61
2023-01-30T22:39:04.640Z,2.60
2023-01-30T22:41:36.250Z,2.57
2023-01-30T22:44:05.239Z,2.55
2023-01-30T22:46:34.702Z,2.55
2023-01-30T22:49:02.799Z,2.51
2023-01-30T22:51:32.410Z,2.50
2023-01-30T22:54:01.917Z,2.49
2023-01-30T22:56:31.839Z,2.44
2023-01-30T22:58:59.689Z,2.40
2023-01-30T23:01:31.826Z,2.40
2023-01-30T23:04:01.399Z,2.37
2023-01-30T23:06:29.298Z,2.36
2023-01-30T23:08:57.116Z,2.34
2023-01-30T23:11:27.303Z,2.32
2023-01-30T23:13:56.340Z,2.27
2023-01-30T23:16:26.240Z,2.25
2023-01-30T23:18:56.995Z,2.23
2023-01-30T23:21:28.978Z,2.19
2023-01-30T23:23:58.170Z,2.19
2023-01-30T23:26:27.158Z,2.19
2023-01-30T23:28:54.967Z,2.17
2023-01-30T23:31:24.624Z,2.15
2023-01-30T23:34:00.244Z,2.12
2023-01-30T23:36:28.314Z,2.08
2023-01-30T23:38:57.127Z,2.09
2023-01-30T23:41:27.114Z,2.06
2023-01-30T23:43:55.277Z,2.06
2023-01-30T23:46:28.256Z,2.06
2023-01-30T23:48:58.040Z,2.05
2023-01-30T23:51:28.420Z,2.06
2023-01-30T23:53:56.301Z,2.04
2023-01-30T23:56:25.036Z,2.02
2023-01-30T23:58:53.002Z,2.02
